メインページ
METAR-TAF:

METAR-TAF

空港 :

立川飛行場

立川, 日本

緯度: 35-42N, 経度: 139-24E, 海抜: 95m

現時点の気象観測

当レポートは4時間24分前の04:08(UTC)に作成
の風 4kt、北東から南/南東の間で変化する
気温 9°C
湿度 34%
気圧 1020 hPa
視程10km以上
高度1000ftの雲はほとんどない
高度4000ftの千切れ雲あり
高度8000ftの千切れ雲あり
弱いにわか雨

METAR: RJTC 130408Z 09004KT 050V150 9999 -SHRA FEW010 BKN040 BKN080 09/M06 Q1020 RMK 2ST010 5SC040 6AC080 A3012 W/E

時間: 17:32 (08:32 UTC)


TAF: 見つかりません

4,000以上の空港の気象観測と天気予報(METAR報とTAF報)

利用可能な観測所は地図上に黄色い丸と赤い丸で示す。

丸の上にカーソルを重ねると観測所名を参照できる。

次にクリックすると気象観測と天気予報を参照できる。

マップの切り替え:黒色「×」印の緑ボタンをクリックして拡大、「-」印の緑ボタンをクリックして縮小、緑色の三角印をクリックして隣りの地図に切り替え


METAR-TAF: